Time;durP1;ratioP1;P1;durP2;ratioP2;P2;SDS_P1;SDS_P2;PMS_P1;PMS_P2;Temp;Humidity;BMP_temperature;BMP_pressure;BME280_temperature;BME280_humidity;BME280_pressure;Samples;Min_cycle;Max_cycle;Signal;HPM_P1;HPM_P2
2021/09/23 00:01:39;;;;;;;37.38;29.38;;;;;;;;;;5021648;28;20411;-75
2021/09/23 00:06:44;;;;;;;38.60;29.20;;;;;;;;;;5031769;28;20129;-73
2021/09/23 00:09:10;;;;;;;37.40;27.80;;;;;;;;;;5033053;28;20471;-74
2021/09/23 00:11:36;;;;;;;34.17;27.33;;;;;;;;;;5019618;28;20045;-75
2021/09/23 00:14:02;;;;;;;32.15;26.65;;;;;;;;;;5033964;28;20052;-74
2021/09/23 00:16:29;;;;;;;32.08;26.05;;;;;;;;;;5035146;28;20068;-74
2021/09/23 00:18:55;;;;;;;40.15;30.83;;;;;;;;;;5019744;28;20072;-75
2021/09/23 00:21:23;;;;;;;44.97;32.30;;;;;;;;;;5033723;28;20033;-74
2021/09/23 00:23:50;;;;;;;39.75;30.85;;;;;;;;;;5029675;28;20092;-75
2021/09/23 00:26:17;;;;;;;42.13;31.10;;;;;;;;;;5029818;28;20439;-75
2021/09/23 00:28:43;;;;;;;42.53;29.98;;;;;;;;;;5025755;28;20060;-74
2021/09/23 00:31:10;;;;;;;40.25;31.67;;;;;;;;;;5031880;28;20174;-74
2021/09/23 00:33:36;;;;;;;40.78;28.85;;;;;;;;;;5025375;28;20021;-74
2021/09/23 00:36:02;;;;;;;46.25;31.88;;;;;;;;;;5032029;28;20510;-74
2021/09/23 00:38:30;;;;;;;42.53;29.58;;;;;;;;;;5033573;28;20367;-74
2021/09/23 00:40:56;;;;;;;43.58;31.17;;;;;;;;;;5025623;28;20089;-73
2021/09/23 00:43:22;;;;;;;52.40;32.28;;;;;;;;;;5031442;28;20060;-75
2021/09/23 00:45:48;;;;;;;48.38;32.65;;;;;;;;;;5030741;28;20475;-75
2021/09/23 00:48:15;;;;;;;49.35;33.33;;;;;;;;;;5033375;28;20026;-75
2021/09/23 00:50:43;;;;;;;47.28;31.45;;;;;;;;;;5035216;28;20032;-74
2021/09/23 00:53:11;;;;;;;49.17;33.35;;;;;;;;;;5013890;28;20103;-75
2021/09/23 00:55:37;;;;;;;49.58;33.38;;;;;;;;;;5015406;28;20525;-74
2021/09/23 00:58:04;;;;;;;48.72;31.70;;;;;;;;;;5032138;28;20030;-74
2021/09/23 01:00:30;;;;;;;46.90;32.67;;;;;;;;;;5027416;28;20022;-75
2021/09/23 01:02:56;;;;;;;44.03;32.45;;;;;;;;;;5025439;28;20068;-74
2021/09/23 01:05:22;;;;;;;42.38;33.22;;;;;;;;;;5005288;28;20396;-74
2021/09/23 01:07:49;;;;;;;39.25;31.55;;;;;;;;;;5032921;28;20065;-75
2021/09/23 01:10:16;;;;;;;42.90;31.35;;;;;;;;;;5029295;28;20036;-74
2021/09/23 01:12:44;;;;;;;36.75;29.70;;;;;;;;;;5013830;28;20030;-75
2021/09/23 01:15:10;;;;;;;44.30;32.65;;;;;;;;;;5025538;28;20029;-73
2021/09/23 01:17:37;;;;;;;43.95;32.78;;;;;;;;;;5027840;28;20044;-75
2021/09/23 01:20:04;;;;;;;41.67;31.63;;;;;;;;;;5018905;28;20101;-74
2021/09/23 01:22:30;;;;;;;49.67;32.55;;;;;;;;;;5027319;28;20045;-75
2021/09/23 01:24:56;;;;;;;44.70;32.33;;;;;;;;;;5023197;28;20435;-75
2021/09/23 01:27:23;;;;;;;46.15;33.30;;;;;;;;;;5014461;28;20068;-75
2021/09/23 01:29:49;;;;;;;41.83;31.33;;;;;;;;;;5032511;28;20029;-74
2021/09/23 01:32:16;;;;;;;47.40;32.58;;;;;;;;;;5020442;28;20109;-74
2021/09/23 01:34:45;;;;;;;42.90;32.03;;;;;;;;;;5031226;28;20030;-75
2021/09/23 01:37:13;;;;;;;36.70;29.95;;;;;;;;;;5032641;28;20021;-75
2021/09/23 01:39:39;;;;;;;45.38;32.67;;;;;;;;;;5019989;28;20060;-74
2021/09/23 01:42:06;;;;;;;44.13;32.58;;;;;;;;;;5025547;28;20029;-74
2021/09/23 01:44:32;;;;;;;45.42;33.75;;;;;;;;;;5031500;28;20026;-75
2021/09/23 01:46:58;;;;;;;48.30;34.67;;;;;;;;;;5027879;28;20151;-74
2021/09/23 01:49:24;;;;;;;49.42;35.03;;;;;;;;;;5032226;28;20029;-74
2021/09/23 01:51:52;;;;;;;45.72;34.08;;;;;;;;;;5027819;28;20076;-74
2021/09/23 01:54:19;;;;;;;45.67;33.17;;;;;;;;;;5024898;28;20021;-74
2021/09/23 01:56:45;;;;;;;46.53;32.42;;;;;;;;;;5017855;28;20072;-74
2021/09/23 01:59:11;;;;;;;44.67;32.95;;;;;;;;;;5034407;28;20029;-74
2021/09/23 02:01:37;;;;;;;47.78;33.42;;;;;;;;;;5028484;28;20061;-75
2021/09/23 02:04:04;;;;;;;51.45;35.85;;;;;;;;;;5020711;28;20034;-74
2021/09/23 02:06:30;;;;;;;49.05;34.47;;;;;;;;;;5010478;28;20053;-74
2021/09/23 02:08:56;;;;;;;45.85;32.33;;;;;;;;;;5045667;28;20030;-75
2021/09/23 02:11:22;;;;;;;50.22;33.50;;;;;;;;;;5029571;28;20076;-74
2021/09/23 02:13:48;;;;;;;48.40;34.53;;;;;;;;;;5022866;28;20382;-75
2021/09/23 02:16:14;;;;;;;46.97;33.90;;;;;;;;;;5023222;28;20095;-74
2021/09/23 02:18:40;;;;;;;48.33;33.63;;;;;;;;;;5020215;28;20026;-74
2021/09/23 02:21:06;;;;;;;49.92;34.78;;;;;;;;;;5017657;28;20065;-74
2021/09/23 02:23:32;;;;;;;46.58;34.20;;;;;;;;;;5029867;28;20025;-75
2021/09/23 02:25:59;;;;;;;48.95;34.95;;;;;;;;;;5019008;28;20120;-73
2021/09/23 02:28:25;;;;;;;47.85;35.53;;;;;;;;;;5031964;28;20076;-74
2021/09/23 02:30:51;;;;;;;50.85;35.58;;;;;;;;;;5032443;28;20022;-75
2021/09/23 02:33:24;;;;;;;48.72;35.47;;;;;;;;;;5008438;28;20546;-74
2021/09/23 02:35:51;;;;;;;50.90;35.85;;;;;;;;;;5019598;28;20061;-73
2021/09/23 02:38:17;;;;;;;45.83;35.00;;;;;;;;;;5032211;28;20033;-75
2021/09/23 02:40:43;;;;;;;45.65;34.47;;;;;;;;;;5042773;28;20041;-73
2021/09/23 02:43:09;;;;;;;44.85;33.90;;;;;;;;;;5044154;28;20025;-74
2021/09/23 02:45:35;;;;;;;46.22;35.03;;;;;;;;;;5025813;28;20022;-73
2021/09/23 02:48:01;;;;;;;46.22;33.70;;;;;;;;;;5019153;28;20453;-74
2021/09/23 02:50:27;;;;;;;44.17;33.40;;;;;;;;;;5020599;28;20024;-74
2021/09/23 02:52:56;;;;;;;45.60;33.97;;;;;;;;;;5029781;28;20037;-74
2021/09/23 02:55:22;;;;;;;46.20;35.08;;;;;;;;;;5022952;28;20022;-73
2021/09/23 02:57:48;;;;;;;44.10;33.80;;;;;;;;;;5025032;28;20022;-73
2021/09/23 03:00:14;;;;;;;42.63;33.38;;;;;;;;;;5031525;28;20073;-73
2021/09/23 03:02:42;;;;;;;47.47;33.33;;;;;;;;;;5029678;28;20542;-74
2021/09/23 03:05:08;;;;;;;43.95;33.72;;;;;;;;;;5031504;28;20022;-74
2021/09/23 03:07:34;;;;;;;44.45;32.97;;;;;;;;;;5030291;28;20057;-74
2021/09/23 03:10:01;;;;;;;45.40;34.17;;;;;;;;;;5035114;28;20385;-73
2021/09/23 03:12:27;;;;;;;48.67;33.75;;;;;;;;;;5033242;28;20033;-73
2021/09/23 03:14:53;;;;;;;45.47;34.10;;;;;;;;;;5044341;28;20064;-75
2021/09/23 03:17:19;;;;;;;48.17;34.72;;;;;;;;;;5015278;28;20099;-75
2021/09/23 03:19:45;;;;;;;43.85;33.85;;;;;;;;;;5016401;28;20030;-75
2021/09/23 03:22:11;;;;;;;45.40;33.95;;;;;;;;;;5001287;28;20118;-73
2021/09/23 03:24:37;;;;;;;48.35;34.22;;;;;;;;;;5020918;28;20025;-75
2021/09/23 03:27:04;;;;;;;52.90;34.65;;;;;;;;;;5031111;28;20128;-74
2021/09/23 03:29:30;;;;;;;44.78;33.70;;;;;;;;;;5029647;28;20079;-74
2021/09/23 03:31:56;;;;;;;47.83;33.85;;;;;;;;;;5034943;28;20022;-74
2021/09/23 03:34:22;;;;;;;42.95;33.58;;;;;;;;;;5018253;28;20463;-75
2021/09/23 03:36:48;;;;;;;42.22;33.75;;;;;;;;;;5046383;28;20395;-73
2021/09/23 03:39:17;;;;;;;47.38;33.95;;;;;;;;;;5007715;28;20502;-74
2021/09/23 03:41:43;;;;;;;44.53;33.63;;;;;;;;;;5034536;28;20041;-75
2021/09/23 03:44:09;;;;;;;44.22;32.88;;;;;;;;;;5025410;28;20022;-74
2021/09/23 03:46:35;;;;;;;49.75;34.53;;;;;;;;;;5034794;28;20026;-75
2021/09/23 03:49:02;;;;;;;48.85;34.97;;;;;;;;;;5038676;28;20060;-75
2021/09/23 03:51:28;;;;;;;51.83;34.42;;;;;;;;;;5022439;28;20028;-75
2021/09/23 03:53:54;;;;;;;49.90;35.20;;;;;;;;;;5026812;28;20032;-75
2021/09/23 03:56:20;;;;;;;39.22;31.33;;;;;;;;;;5025573;28;20036;-75
2021/09/23 03:58:49;;;;;;;45.17;32.65;;;;;;;;;;5022989;28;20029;-75
2021/09/23 04:01:15;;;;;;;46.47;34.83;;;;;;;;;;5030237;28;20030;-74
2021/09/23 04:03:41;;;;;;;50.15;36.10;;;;;;;;;;5020980;28;20033;-74
2021/09/23 04:06:07;;;;;;;45.95;34.80;;;;;;;;;;5024720;28;20476;-72
2021/09/23 04:08:33;;;;;;;53.80;36.33;;;;;;;;;;5022666;28;20112;-71
2021/09/23 04:10:59;;;;;;;49.72;35.63;;;;;;;;;;5026414;28;20050;-73
2021/09/23 04:13:25;;;;;;;52.03;36.67;;;;;;;;;;5019651;28;20025;-72
2021/09/23 04:15:51;;;;;;;56.53;37.30;;;;;;;;;;5015004;28;20026;-71
2021/09/23 04:18:18;;;;;;;56.30;36.75;;;;;;;;;;5017224;28;20454;-73
2021/09/23 04:20:47;;;;;;;56.47;36.60;;;;;;;;;;5005547;28;20076;-74
2021/09/23 04:23:14;;;;;;;51.70;35.00;;;;;;;;;;5020627;28;20052;-67
2021/09/23 04:25:43;;;;;;;59.42;37.35;;;;;;;;;;5034326;28;20069;-71
2021/09/23 04:28:09;;;;;;;53.20;34.42;;;;;;;;;;5003022;28;20038;-72
2021/09/23 04:30:35;;;;;;;58.20;35.50;;;;;;;;;;5035290;28;20113;-70
2021/09/23 04:33:01;;;;;;;64.80;36.65;;;;;;;;;;5024927;28;20021;-73
2021/09/23 04:35:27;;;;;;;65.82;36.90;;;;;;;;;;5026612;28;20022;-76
2021/09/23 04:37:56;;;;;;;71.35;39.80;;;;;;;;;;5037741;28;20484;-72
2021/09/23 04:40:22;;;;;;;68.68;37.83;;;;;;;;;;5022711;28;20037;-74
2021/09/23 04:42:48;;;;;;;65.80;36.92;;;;;;;;;;5022402;28;20069;-69
2021/09/23 04:45:14;;;;;;;60.50;36.28;;;;;;;;;;5019107;28;20022;-71
2021/09/23 04:47:40;;;;;;;53.40;33.70;;;;;;;;;;5021537;28;20437;-72
2021/09/23 04:50:06;;;;;;;56.90;33.20;;;;;;;;;;5015844;28;20018;-73
2021/09/23 04:52:32;;;;;;;46.33;31.00;;;;;;;;;;5012671;28;20030;-71
2021/09/23 04:54:58;;;;;;;45.20;29.55;;;;;;;;;;5012322;28;20080;-72
2021/09/23 04:57:24;;;;;;;49.20;32.83;;;;;;;;;;5019524;28;20436;-72
2021/09/23 04:59:50;;;;;;;41.95;30.52;;;;;;;;;;5016293;28;20076;-72
2021/09/23 05:02:17;;;;;;;46.22;30.77;;;;;;;;;;5022250;28;20427;-72
2021/09/23 05:04:44;;;;;;;43.53;30.35;;;;;;;;;;5022954;28;20026;-72
2021/09/23 05:07:11;;;;;;;44.95;29.00;;;;;;;;;;5013193;28;20029;-72
2021/09/23 05:09:37;;;;;;;40.78;26.65;;;;;;;;;;5014163;28;20034;-72
2021/09/23 05:12:04;;;;;;;33.88;25.17;;;;;;;;;;5013982;28;20386;-72
2021/09/23 05:14:30;;;;;;;39.28;25.80;;;;;;;;;;5021070;28;20156;-72
2021/09/23 05:16:56;;;;;;;34.78;26.70;;;;;;;;;;5013257;28;20439;-70
2021/09/23 05:19:23;;;;;;;40.35;26.95;;;;;;;;;;5016044;28;20416;-72
2021/09/23 05:21:49;;;;;;;40.67;26.90;;;;;;;;;;5033237;28;20049;-72
2021/09/23 05:24:17;;;;;;;53.47;36.42;;;;;;;;;;5025532;28;20025;-72
2021/09/23 05:26:43;;;;;;;55.63;38.28;;;;;;;;;;5032886;28;20029;-73
2021/09/23 05:29:11;;;;;;;47.83;35.63;;;;;;;;;;5030883;28;20056;-71
2021/09/23 05:31:37;;;;;;;51.90;35.72;;;;;;;;;;5027123;28;20025;-70
2021/09/23 05:34:03;;;;;;;45.42;32.63;;;;;;;;;;5018674;28;20026;-71
2021/09/23 05:36:30;;;;;;;49.78;34.78;;;;;;;;;;5030353;28;20033;-72
2021/09/23 05:38:59;;;;;;;49.75;34.10;;;;;;;;;;5030585;28;20100;-73
2021/09/23 05:41:25;;;;;;;57.33;38.30;;;;;;;;;;5031825;28;20509;-72
2021/09/23 05:43:51;;;;;;;66.05;43.03;;;;;;;;;;5025976;28;20026;-72
2021/09/23 05:46:17;;;;;;;71.72;47.90;;;;;;;;;;5026024;28;20048;-72
2021/09/23 05:48:43;;;;;;;61.03;41.83;;;;;;;;;;5026658;28;20037;-69
2021/09/23 05:51:10;;;;;;;52.33;36.78;;;;;;;;;;5030070;28;20033;-71
2021/09/23 05:53:36;;;;;;;53.40;35.97;;;;;;;;;;5027172;28;20076;-72
2021/09/23 05:56:02;;;;;;;50.33;30.27;;;;;;;;;;5025270;28;20026;-70
2021/09/23 05:58:28;;;;;;;46.60;30.55;;;;;;;;;;5028671;28;20068;-72
2021/09/23 06:00:54;;;;;;;41.60;29.27;;;;;;;;;;5032010;28;20048;-73
2021/09/23 06:03:20;;;;;;;46.33;30.33;;;;;;;;;;5031833;28;20029;-72
2021/09/23 06:05:47;;;;;;;42.20;28.13;;;;;;;;;;5032135;28;20029;-72
2021/09/23 06:08:14;;;;;;;48.30;29.88;;;;;;;;;;5028485;28;20026;-72
2021/09/23 06:10:40;;;;;;;42.15;29.65;;;;;;;;;;5020680;28;20053;-72
2021/09/23 06:13:12;;;;;;;46.17;29.65;;;;;;;;;;5030344;28;20064;-72
2021/09/23 06:15:38;;;;;;;41.88;29.63;;;;;;;;;;5031755;28;20427;-72
2021/09/23 06:18:04;;;;;;;44.95;30.38;;;;;;;;;;5023821;28;20029;-72
2021/09/23 06:20:30;;;;;;;44.40;30.10;;;;;;;;;;5031336;28;20036;-72
2021/09/23 06:22:56;;;;;;;39.60;28.38;;;;;;;;;;5031737;28;20036;-72
2021/09/23 06:25:23;;;;;;;42.72;28.48;;;;;;;;;;5029985;28;20025;-72
2021/09/23 06:27:51;;;;;;;40.45;27.30;;;;;;;;;;5031498;28;20451;-73
2021/09/23 06:30:17;;;;;;;44.75;29.75;;;;;;;;;;5030038;28;20048;-73
2021/09/23 06:32:48;;;;;;;42.78;28.85;;;;;;;;;;5031851;28;20482;-72
2021/09/23 06:35:14;;;;;;;41.50;28.23;;;;;;;;;;5030984;28;20025;-72
2021/09/23 06:37:40;;;;;;;43.70;29.80;;;;;;;;;;5027920;28;20040;-72
2021/09/23 06:40:07;;;;;;;40.65;27.35;;;;;;;;;;5029907;28;20041;-70
2021/09/23 06:42:33;;;;;;;46.75;29.52;;;;;;;;;;5018723;28;20088;-69
2021/09/23 06:44:59;;;;;;;39.83;27.35;;;;;;;;;;5026128;28;20057;-72
2021/09/23 06:47:27;;;;;;;47.25;29.63;;;;;;;;;;5033642;28;20041;-72
2021/09/23 06:49:54;;;;;;;42.53;29.00;;;;;;;;;;5039459;28;20025;-72
2021/09/23 06:52:20;;;;;;;44.03;30.38;;;;;;;;;;5045105;28;20025;-72
2021/09/23 06:54:46;;;;;;;41.60;29.52;;;;;;;;;;5029467;28;20029;-71
2021/09/23 06:57:13;;;;;;;37.90;28.40;;;;;;;;;;5026293;28;20104;-69
2021/09/23 06:59:39;;;;;;;41.05;27.75;;;;;;;;;;5029679;28;20402;-70
2021/09/23 07:02:05;;;;;;;37.35;26.58;;;;;;;;;;5025900;28;20483;-72
2021/09/23 07:04:31;;;;;;;35.20;26.05;;;;;;;;;;4993726;28;20050;-72
2021/09/23 07:06:57;;;;;;;37.35;25.60;;;;;;;;;;5009767;28;20047;-73
2021/09/23 07:09:25;;;;;;;36.80;27.35;;;;;;;;;;4999314;28;20034;-73
2021/09/23 07:11:51;;;;;;;36.08;27.38;;;;;;;;;;5000307;28;20110;-73
2021/09/23 07:14:17;;;;;;;40.13;26.60;;;;;;;;;;5004738;28;20080;-71
2021/09/23 07:16:43;;;;;;;37.47;26.20;;;;;;;;;;4997381;28;20030;-73
2021/09/23 07:19:10;;;;;;;35.95;25.13;;;;;;;;;;5000990;28;20041;-71
2021/09/23 07:21:39;;;;;;;38.10;27.77;;;;;;;;;;5025501;28;20034;-78
2021/09/23 07:24:05;;;;;;;34.97;27.27;;;;;;;;;;5013143;28;20030;-77
2021/09/23 07:26:34;;;;;;;36.55;27.05;;;;;;;;;;5014170;28;20430;-77
2021/09/23 07:29:02;;;;;;;37.88;28.08;;;;;;;;;;5025315;28;20030;-76
2021/09/23 07:31:53;;;;;;;34.72;25.83;;;;;;;;;;5015032;28;20038;-78
2021/09/23 07:45:38;;;;;;;49.15;24.63;;;;;;;;;;4976596;28;20748;-76
2021/09/23 07:48:05;;;;;;;29.38;23.33;;;;;;;;;;4974504;28;20019;-76
2021/09/23 07:50:31;;;;;;;34.30;23.63;;;;;;;;;;4956368;28;20596;-76
2021/09/23 07:52:57;;;;;;;30.95;23.08;;;;;;;;;;4971503;28;20034;-78
2021/09/23 07:55:23;;;;;;;36.60;24.48;;;;;;;;;;5128414;23;20005;-75
2021/09/23 07:57:49;;;;;;;39.63;24.73;;;;;;;;;;4971009;28;20050;-74
2021/09/23 08:00:15;;;;;;;46.80;22.13;;;;;;;;;;4954808;28;20023;-73
2021/09/23 08:02:42;;;;;;;90.22;25.25;;;;;;;;;;4974811;28;20039;-76
2021/09/23 08:05:45;;;;;;;23.80;18.90;;;;;;;;;;4956612;28;20045;-72
2021/09/23 08:08:22;;;;;;;30.58;19.67;;;;;;;;;;4951194;28;20023;-73
2021/09/23 08:10:48;;;;;;;29.80;18.60;;;;;;;;;;4974004;28;20105;-73
2021/09/23 08:13:14;;;;;;;31.92;19.45;;;;;;;;;;4971758;28;20041;-72
2021/09/23 08:15:42;;;;;;;53.75;23.52;;;;;;;;;;4975305;28;20428;-73
2021/09/23 08:18:08;;;;;;;37.58;18.48;;;;;;;;;;4951687;29;20024;-72
2021/09/23 08:20:35;;;;;;;35.55;18.85;;;;;;;;;;4967314;28;20023;-73
2021/09/23 08:23:06;;;;;;;46.80;15.75;;;;;;;;;;4977508;28;20086;-77
2021/09/23 08:25:35;;;;;;;33.55;18.02;;;;;;;;;;4966360;28;20042;-75
2021/09/23 08:28:04;;;;;;;22.58;16.73;;;;;;;;;;4963584;28;20434;-75
2021/09/23 08:30:30;;;;;;;24.92;16.35;;;;;;;;;;4975322;28;20409;-75
2021/09/23 08:32:56;;;;;;;24.92;17.13;;;;;;;;;;4975044;28;20058;-74
2021/09/23 08:35:23;;;;;;;25.40;16.00;;;;;;;;;;4957412;28;20488;-75
2021/09/23 08:38:12;;;;;;;25.17;16.77;;;;;;;;;;4975690;28;20062;-76
2021/09/23 08:40:39;;;;;;;19.90;12.30;;;;;;;;;;4962833;28;20159;-75
2021/09/23 08:43:06;;;;;;;21.00;14.05;;;;;;;;;;4981750;28;20015;-77
2021/09/23 08:45:32;;;;;;;24.75;14.45;;;;;;;;;;4959410;28;20066;-76
2021/09/23 08:47:58;;;;;;;23.90;13.65;;;;;;;;;;4978720;28;20048;-74
2021/09/23 08:50:25;;;;;;;21.30;13.63;;;;;;;;;;4961590;28;20122;-75
2021/09/23 08:52:51;;;;;;;21.45;14.02;;;;;;;;;;4980917;28;20039;-73
2021/09/23 08:55:27;;;;;;;18.92;13.98;;;;;;;;;;4977394;28;20050;-74
2021/09/23 08:58:03;;;;;;;25.77;16.83;;;;;;;;;;4980038;28;20074;-75
2021/09/23 09:00:31;;;;;;;25.00;18.23;;;;;;;;;;4958604;28;20548;-76
2021/09/23 09:03:04;;;;;;;26.42;19.38;;;;;;;;;;4981043;28;20043;-75
2021/09/23 09:05:31;;;;;;;31.38;22.67;;;;;;;;;;4970953;28;20030;-72
2021/09/23 09:08:22;;;;;;;28.23;23.13;;;;;;;;;;4975156;28;20039;-69
2021/09/23 09:10:48;;;;;;;33.15;23.55;;;;;;;;;;4991827;28;20027;-70
2021/09/23 09:13:32;;;;;;;33.45;22.92;;;;;;;;;;4994013;28;20049;-72
2021/09/23 09:16:02;;;;;;;;;;;;;;;;;;4974680;29;20050;-72
2021/09/23 09:18:28;;;;;;;33.33;22.67;;;;;;;;;;4984344;28;19890;-76
2021/09/23 09:21:11;;;;;;;36.78;24.95;;;;;;;;;;4992100;28;20113;-71
2021/09/23 09:23:58;;;;;;;28.23;22.17;;;;;;;;;;4987340;28;20042;-77
2021/09/23 09:26:27;;;;;;;37.80;25.75;;;;;;;;;;4978137;28;20062;-74
2021/09/23 09:32:34;;;;;;;24.40;19.38;;;;;;;;;;4897956;29;20039;-72
2021/09/23 09:35:13;;;;;;;23.70;16.27;;;;;;;;;;4903407;29;20037;-72
2021/09/23 09:41:27;;;;;;;17.98;12.88;;;;;;;;;;4916076;29;20046;-71
2021/09/23 09:44:10;;;;;;;17.40;11.52;;;;;;;;;;4858054;29;20045;-71
2021/09/23 09:47:12;;;;;;;12.15;10.10;;;;;;;;;;4860362;29;21021;-73
2021/09/23 09:49:47;;;;;;;12.73;10.25;;;;;;;;;;4860388;29;20030;-74
2021/09/23 09:52:13;;;;;;;12.65;9.68;;;;;;;;;;4862457;29;20090;-73
2021/09/23 09:54:58;;;;;;;19.25;10.45;;;;;;;;;;4862593;29;20072;-71
2021/09/23 09:57:31;;;;;;;10.68;8.60;;;;;;;;;;4858691;29;20106;-72
2021/09/23 10:00:17;;;;;;;9.75;7.60;;;;;;;;;;4842108;29;20026;-74
2021/09/23 10:02:44;;;;;;;9.68;6.88;;;;;;;;;;4864599;29;20057;-73
2021/09/23 10:05:11;;;;;;;14.48;9.15;;;;;;;;;;4877733;29;20033;-69
2021/09/23 10:08:18;;;;;;;8.68;7.43;;;;;;;;;;4877822;29;20044;-74
2021/09/23 10:10:57;;;;;;;13.10;7.20;;;;;;;;;;4901612;29;20751;-68
2021/09/23 10:13:25;;;;;;;8.05;6.65;;;;;;;;;;4900666;29;20532;-71
2021/09/23 10:16:12;;;;;;;9.57;7.95;;;;;;;;;;4893669;29;20115;-73
2021/09/23 10:19:16;;;;;;;9.50;6.47;;;;;;;;;;4899533;29;20044;-71
2021/09/23 10:21:42;;;;;;;;;;;;;;;;;;4980589;28;20125;-76
2021/09/23 10:24:09;;;;;;;9.70;6.70;;;;;;;;;;4995194;28;19944;-73
2021/09/23 10:26:38;;;;;;;13.43;11.27;;;;;;;;;;4996871;28;20042;-75
2021/09/23 10:29:04;;;;;;;12.63;8.35;;;;;;;;;;4998106;28;20034;-75
2021/09/23 10:31:32;;;;;;;12.15;9.98;;;;;;;;;;4981829;28;20046;-76
2021/09/23 10:34:02;;;;;;;8.13;6.20;;;;;;;;;;5000892;28;20029;-74
2021/09/23 10:36:31;;;;;;;12.23;8.23;;;;;;;;;;4979195;28;20089;-75
2021/09/23 10:42:13;;;;;;;6.60;5.80;;;;;;;;;;5001011;28;20062;-72
2021/09/23 10:44:44;;;;;;;8.00;5.50;;;;;;;;;;5023240;28;20035;-72
2021/09/23 10:47:10;;;;;;;7.20;6.38;;;;;;;;;;5023508;28;20006;-72
2021/09/23 10:49:37;;;;;;;11.20;9.77;;;;;;;;;;5008550;28;20086;-72
2021/09/23 10:52:03;;;;;;;13.40;10.38;;;;;;;;;;4998515;28;20172;-76
2021/09/23 10:54:29;;;;;;;17.35;10.60;;;;;;;;;;5000526;28;20104;-76
2021/09/23 10:56:55;;;;;;;14.30;12.45;;;;;;;;;;4979312;28;20054;-76
2021/09/23 10:59:26;;;;;;;11.73;10.15;;;;;;;;;;5007881;28;20050;-76
2021/09/23 11:01:52;;;;;;;27.52;19.60;;;;;;;;;;5004314;28;20129;-74
2021/09/23 11:04:20;;;;;;;34.15;22.08;;;;;;;;;;5002788;28;20034;-76
2021/09/23 11:07:00;;;;;;;32.20;19.67;;;;;;;;;;5012941;28;20073;-72
2021/09/23 11:09:48;;;;;;;13.95;10.27;;;;;;;;;;5027955;28;20042;-79
2021/09/23 11:12:32;;;;;;;24.73;14.38;;;;;;;;;;4951215;29;20035;-77
2021/09/23 11:15:06;;;;;;;12.30;10.10;;;;;;;;;;4981674;28;20042;-74
2021/09/23 11:17:32;;;;;;;;;;;;;;;;;;4958855;28;20035;-70
2021/09/23 11:20:01;;;;;;;23.90;15.63;;;;;;;;;;4957145;28;20419;-70
2021/09/23 11:22:39;;;;;;;10.00;8.23;;;;;;;;;;4962635;28;20509;-75
2021/09/23 11:25:06;;;;;;;11.98;9.90;;;;;;;;;;4970502;28;20082;-71
2021/09/23 11:27:33;;;;;;;11.55;8.80;;;;;;;;;;4972344;28;20035;-74
2021/09/23 11:29:59;;;;;;;13.73;9.80;;;;;;;;;;4960062;28;20067;-71
2021/09/23 11:35:40;;;;;;;;;;;;;;;;;;;;;
2021/09/23 11:38:14;;;;;;;11.90;8.57;;;;;;;;;;4951758;28;20061;-74
2021/09/23 11:40:41;;;;;;;10.55;8.90;;;;;;;;;;4942342;29;20552;-75
2021/09/23 11:43:12;;;;;;;10.90;8.52;;;;;;;;;;4965966;28;20063;-72
2021/09/23 11:45:41;;;;;;;11.77;10.20;;;;;;;;;;4954086;28;20078;-72
2021/09/23 11:48:37;;;;;;;;;;;;;;;;;;;;;
2021/09/23 11:51:14;;;;;;;13.98;9.75;;;;;;;;;;4947839;29;20067;-73
2021/09/23 12:00:01;;;;;;;11.32;8.55;;;;;;;;;;4945260;28;20024;-70
2021/09/23 12:02:28;;;;;;;9.05;7.45;;;;;;;;;;4962527;28;20048;-69
2021/09/23 12:04:55;;;;;;;8.38;6.70;;;;;;;;;;4962289;28;20036;-69
2021/09/23 12:07:52;;;;;;;9.43;7.95;;;;;;;;;;4961996;28;20024;-70
2021/09/23 12:10:20;;;;;;;8.32;7.18;;;;;;;;;;4905318;29;20025;-71
2021/09/23 12:12:54;;;;;;;10.68;6.50;;;;;;;;;;4920242;23;20105;-72
2021/09/23 12:15:23;;;;;;;7.93;5.03;;;;;;;;;;5019814;28;20029;-70
2021/09/23 12:17:57;;;;;;;6.43;5.18;;;;;;;;;;5004034;28;20014;-70
2021/09/23 12:20:36;;;;;;;5.85;5.25;;;;;;;;;;5021305;28;20037;-71
2021/09/23 12:23:22;;;;;;;6.15;4.60;;;;;;;;;;5010276;28;20052;-73
2021/09/23 12:26:10;;;;;;;4.80;4.30;;;;;;;;;;5021226;28;20038;-70
2021/09/23 12:28:42;;;;;;;7.03;3.85;;;;;;;;;;5017581;28;20034;-71
2021/09/23 12:31:15;;;;;;;6.55;5.10;;;;;;;;;;5000336;28;20034;-71
2021/09/23 12:33:54;;;;;;;10.77;7.80;;;;;;;;;;4999163;28;20059;-71
2021/09/23 12:36:20;;;;;;;15.45;11.90;;;;;;;;;;5007112;28;20071;-70
2021/09/23 12:38:47;;;;;;;26.80;16.10;;;;;;;;;;5000036;28;20023;-70
2021/09/23 12:41:17;;;;;;;17.35;11.50;;;;;;;;;;4999526;28;20043;-70
2021/09/23 12:44:19;;;;;;;13.13;9.82;;;;;;;;;;4999974;28;20029;-71
2021/09/23 12:46:46;;;;;;;16.80;10.95;;;;;;;;;;4954770;28;20461;-75
2021/09/23 12:49:16;;;;;;;11.15;6.85;;;;;;;;;;4961185;28;20016;-72
2021/09/23 12:51:42;;;;;;;6.70;4.70;;;;;;;;;;4949643;29;20104;-71
2021/09/23 12:54:18;;;;;;;5.10;4.57;;;;;;;;;;4943746;29;20041;-74
2021/09/23 12:57:23;;;;;;;6.70;4.70;;;;;;;;;;4951819;29;20027;-75
2021/09/23 12:59:50;;;;;;;6.75;4.45;;;;;;;;;;4955895;29;20617;-78
2021/09/23 13:02:21;;;;;;;6.85;4.65;;;;;;;;;;4958023;29;20036;-71
2021/09/23 13:05:03;;;;;;;6.03;4.60;;;;;;;;;;4954194;29;20039;-71
2021/09/23 13:08:04;;;;;;;5.25;4.22;;;;;;;;;;4945618;29;20043;-70
2021/09/23 13:10:59;;;;;;;28.40;13.55;;;;;;;;;;4940464;29;20040;-72
2021/09/23 13:13:39;;;;;;;23.17;12.55;;;;;;;;;;4900053;29;20037;-70
2021/09/23 13:19:38;;;;;;;18.83;11.38;;;;;;;;;;4848098;29;20050;-71
2021/09/23 13:22:10;;;;;;;39.28;23.75;;;;;;;;;;5080143;23;20164;-71
2021/09/23 13:24:36;;;;;;;8.20;6.60;;;;;;;;;;5039944;28;20017;-71
2021/09/23 13:27:02;;;;;;;12.60;9.18;;;;;;;;;;5038763;28;20034;-70
2021/09/23 13:29:30;;;;;;;34.75;21.05;;;;;;;;;;5039195;28;20089;-69
2021/09/23 13:31:56;;;;;;;29.10;17.00;;;;;;;;;;5038200;28;20013;-69
2021/09/23 13:34:48;;;;;;;17.98;10.20;;;;;;;;;;5038722;28;20033;-70
2021/09/23 13:37:14;;;;;;;22.15;13.40;;;;;;;;;;5016473;28;20088;-73
2021/09/23 13:39:40;;;;;;;49.33;32.58;;;;;;;;;;5030756;28;20009;-74
2021/09/23 13:42:06;;;;;;;24.02;16.23;;;;;;;;;;5031419;28;20057;-76
2021/09/23 13:44:32;;;;;;;9.13;7.53;;;;;;;;;;5035419;28;20483;-79
2021/09/23 13:46:59;;;;;;;17.52;13.45;;;;;;;;;;5008196;23;20059;-77
2021/09/23 13:53:01;;;;;;;10.45;8.48;;;;;;;;;;4951433;29;20035;-77
2021/09/23 13:55:27;;;;;;;12.90;8.80;;;;;;;;;;4872362;29;20053;-81
2021/09/23 14:01:02;;;;;;;12.77;10.32;;;;;;;;;;4809468;29;20058;-76
2021/09/23 14:03:30;;;;;;;10.23;8.77;;;;;;;;;;4810240;29;20063;-82
2021/09/23 14:05:57;;;;;;;11.85;9.43;;;;;;;;;;4811934;29;20453;-71
2021/09/23 14:08:23;;;;;;;8.00;7.13;;;;;;;;;;4814763;29;20508;-81
2021/09/23 14:10:49;;;;;;;11.23;8.60;;;;;;;;;;4819759;29;20510;-74
2021/09/23 14:13:16;;;;;;;12.00;8.55;;;;;;;;;;4818799;29;20130;-82
2021/09/23 14:15:42;;;;;;;7.72;6.93;;;;;;;;;;4814336;29;20055;-73
2021/09/23 14:21:24;;;;;;;9.43;7.72;;;;;;;;;;4783912;30;20409;-81
2021/09/23 14:23:51;;;;;;;8.77;6.95;;;;;;;;;;4791579;30;20546;-83
2021/09/23 14:26:19;;;;;;;10.27;6.32;;;;;;;;;;4778513;30;20118;-81
2021/09/23 14:28:45;;;;;;;11.57;7.55;;;;;;;;;;4769597;30;20543;-78
2021/09/23 14:34:15;;;;;;;8.98;6.50;;;;;;;;;;4848275;29;20099;-80
2021/09/23 14:36:42;;;;;;;10.10;6.22;;;;;;;;;;4838336;29;20042;-80
2021/09/23 14:39:08;;;;;;;8.35;5.07;;;;;;;;;;4898534;29;20100;-79
2021/09/23 14:41:34;;;;;;;6.68;5.00;;;;;;;;;;4958312;23;20039;-70
2021/09/23 14:44:01;;;;;;;7.18;5.85;;;;;;;;;;5017846;28;20015;-70
2021/09/23 14:46:27;;;;;;;7.68;5.57;;;;;;;;;;5018801;28;20070;-70
2021/09/23 14:48:53;;;;;;;7.47;5.68;;;;;;;;;;4996362;28;20011;-72
2021/09/23 14:51:20;;;;;;;7.93;5.57;;;;;;;;;;4991920;28;20014;-72
2021/09/23 14:53:46;;;;;;;8.82;5.50;;;;;;;;;;5012898;28;20015;-70
2021/09/23 14:56:13;;;;;;;6.45;5.38;;;;;;;;;;4988569;28;20011;-71
2021/09/23 14:58:43;;;;;;;6.18;5.15;;;;;;;;;;4988877;28;20014;-70
2021/09/23 15:04:47;;;;;;;5.93;4.97;;;;;;;;;;5019473;28;20035;-70
2021/09/23 15:07:17;;;;;;;8.18;5.35;;;;;;;;;;5006112;28;20024;-70
2021/09/23 15:10:08;;;;;;;7.60;4.88;;;;;;;;;;5011298;28;20026;-75
2021/09/23 15:13:03;;;;;;;5.95;4.82;;;;;;;;;;5001781;28;20091;-70
2021/09/23 15:16:19;;;;;;;6.57;4.88;;;;;;;;;;5002293;28;20046;-74
2021/09/23 15:19:26;;;;;;;8.48;5.07;;;;;;;;;;4906255;29;20055;-70
2021/09/23 15:21:53;;;;;;;8.57;4.90;;;;;;;;;;4868289;29;20014;-70
2021/09/23 15:24:19;;;;;;;9.00;4.47;;;;;;;;;;4869375;29;20098;-70
2021/09/23 15:27:11;;;;;;;8.18;5.38;;;;;;;;;;4868905;29;20046;-71
2021/09/23 15:29:37;;;;;;;7.25;4.78;;;;;;;;;;4867908;29;20033;-71
2021/09/23 15:32:04;;;;;;;7.75;4.80;;;;;;;;;;4883254;29;20025;-70
2021/09/23 15:34:30;;;;;;;6.50;4.78;;;;;;;;;;4868913;29;20033;-70